sensor_id;sensor_type;location;lat;lon;timestamp;P1;durP1;ratioP1;P2;durP2;ratioP2
48552;SDS011;34335;51.566;6.994;2023-12-07T00:01:13;13.30;;;7.30;;
48552;SDS011;34335;51.566;6.994;2023-12-07T00:03:38;18.55;;;7.25;;
48552;SDS011;34335;51.566;6.994;2023-12-07T00:06:03;21.23;;;7.83;;
48552;SDS011;34335;51.566;6.994;2023-12-07T00:08:29;19.02;;;7.93;;
48552;SDS011;34335;51.566;6.994;2023-12-07T00:10:54;19.75;;;6.40;;
48552;SDS011;34335;51.566;6.994;2023-12-07T00:13:19;16.10;;;6.90;;
48552;SDS011;34335;51.566;6.994;2023-12-07T00:15:45;11.63;;;6.05;;
48552;SDS011;34335;51.566;6.994;2023-12-07T00:18:10;14.77;;;6.50;;
48552;SDS011;34335;51.566;6.994;2023-12-07T00:20:36;15.55;;;7.00;;
48552;SDS011;34335;51.566;6.994;2023-12-07T00:23:01;12.65;;;5.85;;
48552;SDS011;34335;51.566;6.994;2023-12-07T00:25:26;24.30;;;10.13;;
48552;SDS011;34335;51.566;6.994;2023-12-07T00:27:52;20.65;;;7.70;;
48552;SDS011;34335;51.566;6.994;2023-12-07T00:30:17;19.63;;;7.15;;
48552;SDS011;34335;51.566;6.994;2023-12-07T00:32:43;19.42;;;5.75;;
48552;SDS011;34335;51.566;6.994;2023-12-07T00:35:09;18.17;;;7.13;;
48552;SDS011;34335;51.566;6.994;2023-12-07T00:37:35;17.40;;;7.25;;
48552;SDS011;34335;51.566;6.994;2023-12-07T00:40:00;16.98;;;7.75;;
48552;SDS011;34335;51.566;6.994;2023-12-07T00:42:26;18.00;;;7.55;;
48552;SDS011;34335;51.566;6.994;2023-12-07T00:44:52;11.77;;;6.50;;
48552;SDS011;34335;51.566;6.994;2023-12-07T00:47:17;20.13;;;7.97;;
48552;SDS011;34335;51.566;6.994;2023-12-07T00:49:43;14.57;;;6.72;;
48552;SDS011;34335;51.566;6.994;2023-12-07T00:52:08;20.85;;;7.40;;
48552;SDS011;34335;51.566;6.994;2023-12-07T00:54:34;23.50;;;9.20;;
48552;SDS011;34335;51.566;6.994;2023-12-07T00:56:59;22.70;;;8.90;;
48552;SDS011;34335;51.566;6.994;2023-12-07T00:59:25;16.45;;;6.50;;
48552;SDS011;34335;51.566;6.994;2023-12-07T01:01:50;15.05;;;7.00;;
48552;SDS011;34335;51.566;6.994;2023-12-07T01:04:15;22.33;;;6.75;;
48552;SDS011;34335;51.566;6.994;2023-12-07T01:06:41;16.83;;;7.15;;
48552;SDS011;34335;51.566;6.994;2023-12-07T01:09:07;16.05;;;7.45;;
48552;SDS011;34335;51.566;6.994;2023-12-07T01:11:33;14.80;;;7.47;;
48552;SDS011;34335;51.566;6.994;2023-12-07T01:13:59;15.50;;;6.88;;
48552;SDS011;34335;51.566;6.994;2023-12-07T01:16:24;14.45;;;6.05;;
48552;SDS011;34335;51.566;6.994;2023-12-07T01:18:49;13.95;;;6.68;;
48552;SDS011;34335;51.566;6.994;2023-12-07T01:21:15;14.75;;;6.47;;
48552;SDS011;34335;51.566;6.994;2023-12-07T01:23:40;14.25;;;6.90;;
48552;SDS011;34335;51.566;6.994;2023-12-07T01:26:05;22.98;;;8.13;;
48552;SDS011;34335;51.566;6.994;2023-12-07T01:28:32;16.10;;;8.27;;
48552;SDS011;34335;51.566;6.994;2023-12-07T01:30:57;17.65;;;7.22;;
48552;SDS011;34335;51.566;6.994;2023-12-07T01:33:22;16.88;;;8.45;;
48552;SDS011;34335;51.566;6.994;2023-12-07T01:35:48;15.15;;;6.90;;
48552;SDS011;34335;51.566;6.994;2023-12-07T01:38:13;20.23;;;8.40;;
48552;SDS011;34335;51.566;6.994;2023-12-07T01:40:38;12.05;;;6.28;;
48552;SDS011;34335;51.566;6.994;2023-12-07T01:43:04;14.70;;;7.50;;
48552;SDS011;34335;51.566;6.994;2023-12-07T01:45:29;15.27;;;6.75;;
48552;SDS011;34335;51.566;6.994;2023-12-07T01:47:54;16.92;;;5.78;;
48552;SDS011;34335;51.566;6.994;2023-12-07T01:50:21;16.05;;;6.20;;
48552;SDS011;34335;51.566;6.994;2023-12-07T01:52:49;13.40;;;6.13;;
48552;SDS011;34335;51.566;6.994;2023-12-07T01:55:18;14.45;;;6.57;;
48552;SDS011;34335;51.566;6.994;2023-12-07T01:57:46;11.43;;;6.95;;
48552;SDS011;34335;51.566;6.994;2023-12-07T02:00:12;12.35;;;6.15;;
48552;SDS011;34335;51.566;6.994;2023-12-07T02:02:39;13.95;;;5.68;;
48552;SDS011;34335;51.566;6.994;2023-12-07T02:05:04;16.75;;;7.22;;
48552;SDS011;34335;51.566;6.994;2023-12-07T02:07:30;14.77;;;6.57;;
48552;SDS011;34335;51.566;6.994;2023-12-07T02:09:57;16.55;;;5.93;;
48552;SDS011;34335;51.566;6.994;2023-12-07T02:12:23;10.75;;;5.43;;
48552;SDS011;34335;51.566;6.994;2023-12-07T02:14:49;11.85;;;5.90;;
48552;SDS011;34335;51.566;6.994;2023-12-07T02:17:18;16.98;;;6.57;;
48552;SDS011;34335;51.566;6.994;2023-12-07T02:19:55;12.05;;;6.03;;
48552;SDS011;34335;51.566;6.994;2023-12-07T02:22:31;13.38;;;6.15;;
48552;SDS011;34335;51.566;6.994;2023-12-07T02:25:03;9.63;;;5.38;;
48552;SDS011;34335;51.566;6.994;2023-12-07T02:27:32;14.63;;;5.97;;
48552;SDS011;34335;51.566;6.994;2023-12-07T02:30:04;11.77;;;5.88;;
48552;SDS011;34335;51.566;6.994;2023-12-07T02:32:31;9.02;;;5.03;;
48552;SDS011;34335;51.566;6.994;2023-12-07T02:34:57;12.02;;;6.30;;
48552;SDS011;34335;51.566;6.994;2023-12-07T02:37:22;11.75;;;5.60;;
48552;SDS011;34335;51.566;6.994;2023-12-07T02:39:52;10.73;;;5.68;;
48552;SDS011;34335;51.566;6.994;2023-12-07T02:42:18;13.77;;;6.35;;
48552;SDS011;34335;51.566;6.994;2023-12-07T02:44:45;13.35;;;6.63;;
48552;SDS011;34335;51.566;6.994;2023-12-07T02:47:11;14.77;;;6.10;;
48552;SDS011;34335;51.566;6.994;2023-12-07T02:49:36;15.48;;;6.30;;
48552;SDS011;34335;51.566;6.994;2023-12-07T02:52:01;14.85;;;6.88;;
48552;SDS011;34335;51.566;6.994;2023-12-07T02:54:27;17.67;;;7.38;;
48552;SDS011;34335;51.566;6.994;2023-12-07T02:56:52;13.52;;;6.97;;
48552;SDS011;34335;51.566;6.994;2023-12-07T02:59:17;14.38;;;6.25;;
48552;SDS011;34335;51.566;6.994;2023-12-07T03:01:43;17.60;;;6.72;;
48552;SDS011;34335;51.566;6.994;2023-12-07T03:04:08;14.30;;;6.43;;
48552;SDS011;34335;51.566;6.994;2023-12-07T03:06:33;14.07;;;8.52;;
48552;SDS011;34335;51.566;6.994;2023-12-07T03:08:59;12.43;;;6.30;;
48552;SDS011;34335;51.566;6.994;2023-12-07T03:11:24;11.52;;;5.88;;
48552;SDS011;34335;51.566;6.994;2023-12-07T03:13:49;13.98;;;5.90;;
48552;SDS011;34335;51.566;6.994;2023-12-07T03:16:14;14.65;;;7.82;;
48552;SDS011;34335;51.566;6.994;2023-12-07T03:18:40;16.48;;;6.65;;
48552;SDS011;34335;51.566;6.994;2023-12-07T03:21:05;14.95;;;6.57;;
48552;SDS011;34335;51.566;6.994;2023-12-07T03:23:31;16.20;;;7.35;;
48552;SDS011;34335;51.566;6.994;2023-12-07T03:25:56;16.65;;;7.45;;
48552;SDS011;34335;51.566;6.994;2023-12-07T03:28:21;9.10;;;5.40;;
48552;SDS011;34335;51.566;6.994;2023-12-07T03:30:47;12.20;;;6.35;;
48552;SDS011;34335;51.566;6.994;2023-12-07T03:33:12;16.20;;;8.48;;
48552;SDS011;34335;51.566;6.994;2023-12-07T03:35:38;13.82;;;5.95;;
48552;SDS011;34335;51.566;6.994;2023-12-07T03:38:03;13.90;;;5.95;;
48552;SDS011;34335;51.566;6.994;2023-12-07T03:40:28;16.33;;;7.53;;
48552;SDS011;34335;51.566;6.994;2023-12-07T03:42:54;16.45;;;7.30;;
48552;SDS011;34335;51.566;6.994;2023-12-07T03:45:19;12.45;;;6.45;;
48552;SDS011;34335;51.566;6.994;2023-12-07T03:47:44;12.15;;;6.40;;
48552;SDS011;34335;51.566;6.994;2023-12-07T03:50:10;19.15;;;7.90;;
48552;SDS011;34335;51.566;6.994;2023-12-07T03:52:35;13.45;;;7.10;;
48552;SDS011;34335;51.566;6.994;2023-12-07T03:55:00;12.68;;;6.13;;
48552;SDS011;34335;51.566;6.994;2023-12-07T03:57:26;13.75;;;6.90;;
48552;SDS011;34335;51.566;6.994;2023-12-07T03:59:51;13.75;;;6.80;;
48552;SDS011;34335;51.566;6.994;2023-12-07T04:02:18;13.98;;;7.03;;
48552;SDS011;34335;51.566;6.994;2023-12-07T04:04:43;13.60;;;6.63;;
48552;SDS011;34335;51.566;6.994;2023-12-07T04:07:08;15.27;;;7.00;;
48552;SDS011;34335;51.566;6.994;2023-12-07T04:09:34;18.13;;;6.87;;
48552;SDS011;34335;51.566;6.994;2023-12-07T04:11:59;15.00;;;6.23;;
48552;SDS011;34335;51.566;6.994;2023-12-07T04:14:24;16.55;;;7.03;;
48552;SDS011;34335;51.566;6.994;2023-12-07T04:16:49;18.63;;;7.03;;
48552;SDS011;34335;51.566;6.994;2023-12-07T04:19:15;18.33;;;8.88;;
48552;SDS011;34335;51.566;6.994;2023-12-07T04:21:40;18.65;;;7.55;;
48552;SDS011;34335;51.566;6.994;2023-12-07T04:24:05;14.18;;;7.70;;
48552;SDS011;34335;51.566;6.994;2023-12-07T04:26:31;16.23;;;7.40;;
48552;SDS011;34335;51.566;6.994;2023-12-07T04:28:56;16.52;;;7.90;;
48552;SDS011;34335;51.566;6.994;2023-12-07T04:31:21;18.33;;;6.95;;
48552;SDS011;34335;51.566;6.994;2023-12-07T04:33:47;27.13;;;8.23;;
48552;SDS011;34335;51.566;6.994;2023-12-07T04:36:12;21.30;;;8.13;;
48552;SDS011;34335;51.566;6.994;2023-12-07T04:38:37;16.63;;;6.93;;
48552;SDS011;34335;51.566;6.994;2023-12-07T04:41:02;24.13;;;7.40;;
48552;SDS011;34335;51.566;6.994;2023-12-07T04:43:28;22.17;;;8.48;;
48552;SDS011;34335;51.566;6.994;2023-12-07T04:45:53;24.00;;;8.05;;
48552;SDS011;34335;51.566;6.994;2023-12-07T04:48:18;24.53;;;7.47;;
48552;SDS011;34335;51.566;6.994;2023-12-07T04:50:44;22.63;;;7.30;;
48552;SDS011;34335;51.566;6.994;2023-12-07T04:53:09;23.17;;;8.65;;
48552;SDS011;34335;51.566;6.994;2023-12-07T04:55:34;22.70;;;7.88;;
48552;SDS011;34335;51.566;6.994;2023-12-07T04:58:00;21.75;;;7.38;;
48552;SDS011;34335;51.566;6.994;2023-12-07T05:00:26;21.17;;;8.70;;
48552;SDS011;34335;51.566;6.994;2023-12-07T05:02:52;21.58;;;8.00;;
48552;SDS011;34335;51.566;6.994;2023-12-07T05:05:17;17.02;;;7.30;;
48552;SDS011;34335;51.566;6.994;2023-12-07T05:07:43;17.92;;;6.82;;
48552;SDS011;34335;51.566;6.994;2023-12-07T05:10:09;18.80;;;7.75;;
48552;SDS011;34335;51.566;6.994;2023-12-07T05:12:34;24.70;;;8.50;;
48552;SDS011;34335;51.566;6.994;2023-12-07T05:15:00;24.63;;;8.23;;
48552;SDS011;34335;51.566;6.994;2023-12-07T05:17:27;21.92;;;7.93;;
48552;SDS011;34335;51.566;6.994;2023-12-07T05:19:52;17.80;;;8.23;;
48552;SDS011;34335;51.566;6.994;2023-12-07T05:22:18;18.23;;;7.85;;
48552;SDS011;34335;51.566;6.994;2023-12-07T05:24:43;29.08;;;8.90;;
48552;SDS011;34335;51.566;6.994;2023-12-07T05:27:08;23.57;;;8.03;;
48552;SDS011;34335;51.566;6.994;2023-12-07T05:29:33;14.48;;;6.55;;
48552;SDS011;34335;51.566;6.994;2023-12-07T05:31:59;21.42;;;8.65;;
48552;SDS011;34335;51.566;6.994;2023-12-07T05:34:24;26.23;;;8.38;;
48552;SDS011;34335;51.566;6.994;2023-12-07T05:36:49;21.80;;;8.18;;
48552;SDS011;34335;51.566;6.994;2023-12-07T05:39:15;17.00;;;6.97;;
48552;SDS011;34335;51.566;6.994;2023-12-07T05:41:42;27.98;;;9.15;;
48552;SDS011;34335;51.566;6.994;2023-12-07T05:44:07;17.92;;;7.45;;
48552;SDS011;34335;51.566;6.994;2023-12-07T05:46:34;18.60;;;6.75;;
48552;SDS011;34335;51.566;6.994;2023-12-07T05:49:00;20.90;;;7.28;;
48552;SDS011;34335;51.566;6.994;2023-12-07T05:51:26;17.05;;;7.05;;
48552;SDS011;34335;51.566;6.994;2023-12-07T05:53:51;14.55;;;6.93;;
48552;SDS011;34335;51.566;6.994;2023-12-07T05:56:18;21.45;;;8.13;;
48552;SDS011;34335;51.566;6.994;2023-12-07T05:58:46;21.27;;;9.48;;
48552;SDS011;34335;51.566;6.994;2023-12-07T06:01:16;20.30;;;8.10;;
48552;SDS011;34335;51.566;6.994;2023-12-07T06:03:42;19.77;;;6.97;;
48552;SDS011;34335;51.566;6.994;2023-12-07T06:06:07;21.73;;;7.25;;
48552;SDS011;34335;51.566;6.994;2023-12-07T06:08:35;32.22;;;8.88;;
48552;SDS011;34335;51.566;6.994;2023-12-07T06:11:00;14.52;;;6.28;;
48552;SDS011;34335;51.566;6.994;2023-12-07T06:13:26;20.60;;;7.78;;
48552;SDS011;34335;51.566;6.994;2023-12-07T06:15:51;18.57;;;7.63;;
48552;SDS011;34335;51.566;6.994;2023-12-07T06:18:17;20.42;;;7.32;;
48552;SDS011;34335;51.566;6.994;2023-12-07T06:20:42;16.55;;;6.95;;
48552;SDS011;34335;51.566;6.994;2023-12-07T06:23:08;20.30;;;7.63;;
48552;SDS011;34335;51.566;6.994;2023-12-07T06:25:37;15.88;;;7.70;;
48552;SDS011;34335;51.566;6.994;2023-12-07T06:28:03;19.75;;;8.27;;
48552;SDS011;34335;51.566;6.994;2023-12-07T06:30:29;20.58;;;7.97;;
48552;SDS011;34335;51.566;6.994;2023-12-07T06:32:54;20.55;;;8.10;;
48552;SDS011;34335;51.566;6.994;2023-12-07T06:35:19;16.90;;;6.05;;
48552;SDS011;34335;51.566;6.994;2023-12-07T06:37:45;18.88;;;7.40;;
48552;SDS011;34335;51.566;6.994;2023-12-07T06:40:10;19.17;;;7.82;;
48552;SDS011;34335;51.566;6.994;2023-12-07T06:42:35;14.50;;;5.88;;
48552;SDS011;34335;51.566;6.994;2023-12-07T06:45:01;15.70;;;7.22;;
48552;SDS011;34335;51.566;6.994;2023-12-07T06:47:27;18.63;;;7.78;;
48552;SDS011;34335;51.566;6.994;2023-12-07T06:49:52;14.82;;;6.15;;
48552;SDS011;34335;51.566;6.994;2023-12-07T06:52:17;16.05;;;6.88;;
48552;SDS011;34335;51.566;6.994;2023-12-07T06:54:43;19.75;;;7.63;;
48552;SDS011;34335;51.566;6.994;2023-12-07T06:57:08;16.07;;;7.23;;
48552;SDS011;34335;51.566;6.994;2023-12-07T06:59:33;20.00;;;6.30;;
48552;SDS011;34335;51.566;6.994;2023-12-07T07:01:59;16.23;;;6.53;;
48552;SDS011;34335;51.566;6.994;2023-12-07T07:04:24;20.17;;;7.03;;
48552;SDS011;34335;51.566;6.994;2023-12-07T07:06:49;15.98;;;8.93;;
48552;SDS011;34335;51.566;6.994;2023-12-07T07:09:16;23.17;;;7.82;;
48552;SDS011;34335;51.566;6.994;2023-12-07T07:11:41;21.58;;;7.88;;
48552;SDS011;34335;51.566;6.994;2023-12-07T07:14:07;17.98;;;7.63;;
48552;SDS011;34335;51.566;6.994;2023-12-07T07:16:32;16.90;;;7.63;;
48552;SDS011;34335;51.566;6.994;2023-12-07T07:18:57;15.50;;;6.27;;
48552;SDS011;34335;51.566;6.994;2023-12-07T07:21:23;23.92;;;8.20;;
48552;SDS011;34335;51.566;6.994;2023-12-07T07:23:48;22.52;;;8.18;;
48552;SDS011;34335;51.566;6.994;2023-12-07T07:26:14;18.38;;;8.40;;
48552;SDS011;34335;51.566;6.994;2023-12-07T07:28:42;10.93;;;6.15;;
48552;SDS011;34335;51.566;6.994;2023-12-07T07:31:07;22.58;;;7.60;;
48552;SDS011;34335;51.566;6.994;2023-12-07T07:33:33;16.85;;;7.53;;
48552;SDS011;34335;51.566;6.994;2023-12-07T07:35:58;13.27;;;6.77;;
48552;SDS011;34335;51.566;6.994;2023-12-07T07:38:23;23.02;;;8.32;;
48552;SDS011;34335;51.566;6.994;2023-12-07T07:40:49;18.25;;;7.15;;
48552;SDS011;34335;51.566;6.994;2023-12-07T07:43:15;25.75;;;7.32;;
48552;SDS011;34335;51.566;6.994;2023-12-07T07:45:40;15.60;;;7.13;;
48552;SDS011;34335;51.566;6.994;2023-12-07T07:48:05;20.00;;;8.05;;
48552;SDS011;34335;51.566;6.994;2023-12-07T07:50:30;20.20;;;6.35;;
48552;SDS011;34335;51.566;6.994;2023-12-07T07:52:56;15.80;;;6.45;;
48552;SDS011;34335;51.566;6.994;2023-12-07T07:55:21;19.85;;;8.45;;
48552;SDS011;34335;51.566;6.994;2023-12-07T07:57:46;19.93;;;7.00;;
48552;SDS011;34335;51.566;6.994;2023-12-07T08:00:12;18.13;;;7.47;;
48552;SDS011;34335;51.566;6.994;2023-12-07T08:02:38;22.95;;;7.97;;
48552;SDS011;34335;51.566;6.994;2023-12-07T08:05:03;26.30;;;7.28;;
48552;SDS011;34335;51.566;6.994;2023-12-07T08:07:29;19.02;;;6.05;;
48552;SDS011;34335;51.566;6.994;2023-12-07T08:09:55;20.45;;;8.25;;
48552;SDS011;34335;51.566;6.994;2023-12-07T08:12:20;17.37;;;6.10;;
48552;SDS011;34335;51.566;6.994;2023-12-07T08:14:47;21.77;;;7.22;;
48552;SDS011;34335;51.566;6.994;2023-12-07T08:17:13;16.77;;;6.72;;
48552;SDS011;34335;51.566;6.994;2023-12-07T08:19:41;17.55;;;7.68;;
48552;SDS011;34335;51.566;6.994;2023-12-07T08:22:07;14.20;;;6.18;;
48552;SDS011;34335;51.566;6.994;2023-12-07T08:24:33;17.80;;;7.30;;
48552;SDS011;34335;51.566;6.994;2023-12-07T08:26:58;14.05;;;7.13;;
48552;SDS011;34335;51.566;6.994;2023-12-07T08:29:23;18.85;;;7.10;;
48552;SDS011;34335;51.566;6.994;2023-12-07T08:31:49;21.58;;;7.20;;
48552;SDS011;34335;51.566;6.994;2023-12-07T08:34:14;19.20;;;8.15;;
48552;SDS011;34335;51.566;6.994;2023-12-07T08:36:39;18.33;;;7.00;;
48552;SDS011;34335;51.566;6.994;2023-12-07T08:39:05;15.77;;;6.63;;
48552;SDS011;34335;51.566;6.994;2023-12-07T08:41:34;19.67;;;7.47;;
48552;SDS011;34335;51.566;6.994;2023-12-07T08:43:59;18.75;;;7.40;;
48552;SDS011;34335;51.566;6.994;2023-12-07T08:46:25;19.02;;;7.40;;
48552;SDS011;34335;51.566;6.994;2023-12-07T08:48:50;16.33;;;7.45;;
48552;SDS011;34335;51.566;6.994;2023-12-07T08:51:15;19.67;;;7.63;;
48552;SDS011;34335;51.566;6.994;2023-12-07T08:53:41;15.35;;;6.15;;
48552;SDS011;34335;51.566;6.994;2023-12-07T08:56:06;20.02;;;7.50;;
48552;SDS011;34335;51.566;6.994;2023-12-07T08:58:32;18.25;;;6.80;;
48552;SDS011;34335;51.566;6.994;2023-12-07T09:00:57;25.17;;;7.68;;
48552;SDS011;34335;51.566;6.994;2023-12-07T09:03:22;21.88;;;7.57;;
48552;SDS011;34335;51.566;6.994;2023-12-07T09:05:52;19.23;;;8.38;;
48552;SDS011;34335;51.566;6.994;2023-12-07T09:08:18;16.50;;;7.95;;
48552;SDS011;34335;51.566;6.994;2023-12-07T09:10:43;16.42;;;7.85;;
48552;SDS011;34335;51.566;6.994;2023-12-07T09:13:08;15.82;;;7.13;;
48552;SDS011;34335;51.566;6.994;2023-12-07T09:15:34;23.98;;;7.88;;
48552;SDS011;34335;51.566;6.994;2023-12-07T09:18:02;19.42;;;6.93;;
48552;SDS011;34335;51.566;6.994;2023-12-07T09:20:27;20.02;;;8.93;;
48552;SDS011;34335;51.566;6.994;2023-12-07T09:22:53;20.25;;;6.80;;
48552;SDS011;34335;51.566;6.994;2023-12-07T09:25:20;13.70;;;6.55;;
48552;SDS011;34335;51.566;6.994;2023-12-07T09:27:46;18.27;;;7.22;;
48552;SDS011;34335;51.566;6.994;2023-12-07T09:30:12;19.67;;;6.97;;
48552;SDS011;34335;51.566;6.994;2023-12-07T09:32:41;19.13;;;7.00;;
48552;SDS011;34335;51.566;6.994;2023-12-07T09:35:07;19.40;;;7.18;;
48552;SDS011;34335;51.566;6.994;2023-12-07T09:37:39;13.23;;;6.50;;
48552;SDS011;34335;51.566;6.994;2023-12-07T09:40:05;16.08;;;7.30;;
48552;SDS011;34335;51.566;6.994;2023-12-07T09:42:32;17.15;;;6.07;;
48552;SDS011;34335;51.566;6.994;2023-12-07T09:44:57;20.73;;;8.32;;
48552;SDS011;34335;51.566;6.994;2023-12-07T09:47:23;21.02;;;6.80;;
48552;SDS011;34335;51.566;6.994;2023-12-07T09:49:50;18.90;;;8.18;;
48552;SDS011;34335;51.566;6.994;2023-12-07T09:52:16;15.97;;;7.30;;
48552;SDS011;34335;51.566;6.994;2023-12-07T09:54:42;19.27;;;8.00;;
48552;SDS011;34335;51.566;6.994;2023-12-07T09:57:08;20.27;;;7.63;;
48552;SDS011;34335;51.566;6.994;2023-12-07T09:59:36;17.48;;;8.15;;
48552;SDS011;34335;51.566;6.994;2023-12-07T10:02:02;13.75;;;6.88;;
48552;SDS011;34335;51.566;6.994;2023-12-07T10:04:28;16.55;;;7.43;;
48552;SDS011;34335;51.566;6.994;2023-12-07T10:06:53;14.65;;;7.05;;
48552;SDS011;34335;51.566;6.994;2023-12-07T10:09:19;16.38;;;5.72;;
48552;SDS011;34335;51.566;6.994;2023-12-07T10:11:46;20.88;;;7.28;;
48552;SDS011;34335;51.566;6.994;2023-12-07T10:14:11;17.10;;;7.80;;
48552;SDS011;34335;51.566;6.994;2023-12-07T10:16:37;17.05;;;7.70;;
48552;SDS011;34335;51.566;6.994;2023-12-07T10:19:15;16.58;;;7.32;;
48552;SDS011;34335;51.566;6.994;2023-12-07T10:21:50;12.55;;;5.50;;
48552;SDS011;34335;51.566;6.994;2023-12-07T10:24:16;17.77;;;6.05;;
48552;SDS011;34335;51.566;6.994;2023-12-07T10:26:43;18.30;;;6.32;;
48552;SDS011;34335;51.566;6.994;2023-12-07T10:29:09;11.45;;;6.15;;
48552;SDS011;34335;51.566;6.994;2023-12-07T10:31:35;15.23;;;5.82;;
48552;SDS011;34335;51.566;6.994;2023-12-07T10:34:01;17.60;;;7.85;;
48552;SDS011;34335;51.566;6.994;2023-12-07T10:36:27;17.05;;;6.30;;
48552;SDS011;34335;51.566;6.994;2023-12-07T10:38:52;11.27;;;5.55;;
48552;SDS011;34335;51.566;6.994;2023-12-07T10:41:18;11.80;;;5.50;;
48552;SDS011;34335;51.566;6.994;2023-12-07T10:43:52;17.33;;;5.40;;
48552;SDS011;34335;51.566;6.994;2023-12-07T10:46:21;15.17;;;6.67;;
48552;SDS011;34335;51.566;6.994;2023-12-07T10:48:48;15.02;;;5.65;;
48552;SDS011;34335;51.566;6.994;2023-12-07T10:51:37;14.18;;;5.68;;
48552;SDS011;34335;51.566;6.994;2023-12-07T10:54:14;12.32;;;5.15;;
48552;SDS011;34335;51.566;6.994;2023-12-07T10:56:45;12.45;;;5.57;;
48552;SDS011;34335;51.566;6.994;2023-12-07T10:59:11;12.77;;;5.45;;
48552;SDS011;34335;51.566;6.994;2023-12-07T11:01:41;13.63;;;6.10;;
48552;SDS011;34335;51.566;6.994;2023-12-07T11:04:09;16.30;;;6.55;;
48552;SDS011;34335;51.566;6.994;2023-12-07T11:06:36;12.77;;;6.78;;
48552;SDS011;34335;51.566;6.994;2023-12-07T11:09:03;11.18;;;4.18;;
48552;SDS011;34335;51.566;6.994;2023-12-07T11:11:48;10.77;;;5.32;;
48552;SDS011;34335;51.566;6.994;2023-12-07T11:14:21;16.13;;;5.72;;
48552;SDS011;34335;51.566;6.994;2023-12-07T11:16:47;13.52;;;5.60;;
48552;SDS011;34335;51.566;6.994;2023-12-07T11:22:07;12.07;;;6.27;;
48552;SDS011;34335;51.566;6.994;2023-12-07T11:24:35;13.07;;;4.70;;
48552;SDS011;34335;51.566;6.994;2023-12-07T11:27:01;10.48;;;4.63;;
48552;SDS011;34335;51.566;6.994;2023-12-07T11:29:30;13.20;;;5.13;;
48552;SDS011;34335;51.566;6.994;2023-12-07T11:31:56;13.60;;;5.30;;
48552;SDS011;34335;51.566;6.994;2023-12-07T11:37:03;14.23;;;6.53;;
48552;SDS011;34335;51.566;6.994;2023-12-07T11:39:34;11.63;;;5.50;;
48552;SDS011;34335;51.566;6.994;2023-12-07T11:42:05;13.65;;;5.88;;
48552;SDS011;34335;51.566;6.994;2023-12-07T11:44:33;9.98;;;5.25;;
48552;SDS011;34335;51.566;6.994;2023-12-07T11:47:00;9.38;;;3.90;;
48552;SDS011;34335;51.566;6.994;2023-12-07T11:49:26;8.98;;;4.47;;
48552;SDS011;34335;51.566;6.994;2023-12-07T11:51:53;10.85;;;5.07;;
48552;SDS011;34335;51.566;6.994;2023-12-07T11:54:18;14.90;;;6.23;;
48552;SDS011;34335;51.566;6.994;2023-12-07T11:56:43;11.70;;;5.00;;
48552;SDS011;34335;51.566;6.994;2023-12-07T11:59:09;12.98;;;6.50;;
48552;SDS011;34335;51.566;6.994;2023-12-07T12:01:34;8.57;;;5.07;;
48552;SDS011;34335;51.566;6.994;2023-12-07T12:03:59;14.47;;;4.97;;
48552;SDS011;34335;51.566;6.994;2023-12-07T12:06:25;8.80;;;4.40;;
48552;SDS011;34335;51.566;6.994;2023-12-07T12:08:51;8.90;;;4.63;;
48552;SDS011;34335;51.566;6.994;2023-12-07T12:11:17;7.93;;;4.50;;
48552;SDS011;34335;51.566;6.994;2023-12-07T12:13:43;9.27;;;4.05;;
48552;SDS011;34335;51.566;6.994;2023-12-07T12:16:11;8.80;;;4.38;;
48552;SDS011;34335;51.566;6.994;2023-12-07T12:18:37;10.85;;;5.10;;
48552;SDS011;34335;51.566;6.994;2023-12-07T12:21:02;9.30;;;4.43;;
48552;SDS011;34335;51.566;6.994;2023-12-07T12:23:28;9.00;;;4.75;;
48552;SDS011;34335;51.566;6.994;2023-12-07T12:25:54;7.85;;;4.10;;
48552;SDS011;34335;51.566;6.994;2023-12-07T12:28:19;7.65;;;3.95;;
48552;SDS011;34335;51.566;6.994;2023-12-07T12:30:47;11.93;;;4.35;;
48552;SDS011;34335;51.566;6.994;2023-12-07T12:33:13;8.90;;;4.55;;
48552;SDS011;34335;51.566;6.994;2023-12-07T12:35:38;8.45;;;3.53;;
48552;SDS011;34335;51.566;6.994;2023-12-07T12:38:08;7.78;;;4.47;;
48552;SDS011;34335;51.566;6.994;2023-12-07T12:40:34;9.60;;;4.30;;
48552;SDS011;34335;51.566;6.994;2023-12-07T12:43:00;8.63;;;4.25;;
48552;SDS011;34335;51.566;6.994;2023-12-07T12:45:25;8.65;;;4.40;;
48552;SDS011;34335;51.566;6.994;2023-12-07T12:47:51;12.20;;;4.63;;
48552;SDS011;34335;51.566;6.994;2023-12-07T12:53:18;8.07;;;4.05;;
48552;SDS011;34335;51.566;6.994;2023-12-07T12:55:43;8.18;;;2.85;;
48552;SDS011;34335;51.566;6.994;2023-12-07T12:58:09;5.35;;;3.33;;
48552;SDS011;34335;51.566;6.994;2023-12-07T13:00:37;8.88;;;4.28;;
48552;SDS011;34335;51.566;6.994;2023-12-07T13:03:04;7.97;;;3.10;;
48552;SDS011;34335;51.566;6.994;2023-12-07T13:05:30;7.72;;;3.45;;
48552;SDS011;34335;51.566;6.994;2023-12-07T13:07:59;6.70;;;3.55;;
48552;SDS011;34335;51.566;6.994;2023-12-07T13:10:26;11.25;;;3.65;;
48552;SDS011;34335;51.566;6.994;2023-12-07T13:12:51;6.90;;;3.50;;
48552;SDS011;34335;51.566;6.994;2023-12-07T13:15:17;10.77;;;4.80;;
48552;SDS011;34335;51.566;6.994;2023-12-07T13:17:42;9.35;;;4.03;;
48552;SDS011;34335;51.566;6.994;2023-12-07T13:20:08;7.43;;;2.92;;
48552;SDS011;34335;51.566;6.994;2023-12-07T13:22:40;9.85;;;3.47;;
48552;SDS011;34335;51.566;6.994;2023-12-07T13:25:08;10.25;;;4.00;;
48552;SDS011;34335;51.566;6.994;2023-12-07T13:27:34;7.45;;;3.72;;
48552;SDS011;34335;51.566;6.994;2023-12-07T13:30:00;7.38;;;4.18;;
48552;SDS011;34335;51.566;6.994;2023-12-07T13:32:30;7.50;;;3.88;;
48552;SDS011;34335;51.566;6.994;2023-12-07T13:34:55;9.48;;;4.35;;
48552;SDS011;34335;51.566;6.994;2023-12-07T13:37:20;7.63;;;4.47;;
48552;SDS011;34335;51.566;6.994;2023-12-07T13:39:46;7.60;;;3.47;;
48552;SDS011;34335;51.566;6.994;2023-12-07T13:42:17;10.07;;;4.53;;
48552;SDS011;34335;51.566;6.994;2023-12-07T13:44:43;8.45;;;5.05;;
48552;SDS011;34335;51.566;6.994;2023-12-07T13:47:08;8.17;;;3.93;;
48552;SDS011;34335;51.566;6.994;2023-12-07T13:49:34;8.27;;;3.05;;
48552;SDS011;34335;51.566;6.994;2023-12-07T13:52:02;7.93;;;3.60;;
48552;SDS011;34335;51.566;6.994;2023-12-07T13:54:27;9.40;;;3.88;;
48552;SDS011;34335;51.566;6.994;2023-12-07T13:56:52;6.95;;;3.67;;
48552;SDS011;34335;51.566;6.994;2023-12-07T13:59:18;5.65;;;2.70;;
48552;SDS011;34335;51.566;6.994;2023-12-07T14:01:43;6.95;;;3.03;;
48552;SDS011;34335;51.566;6.994;2023-12-07T14:04:09;7.93;;;3.67;;
48552;SDS011;34335;51.566;6.994;2023-12-07T14:06:34;6.90;;;3.83;;
48552;SDS011;34335;51.566;6.994;2023-12-07T14:09:00;7.38;;;3.90;;
48552;SDS011;34335;51.566;6.994;2023-12-07T14:11:26;7.30;;;3.72;;
48552;SDS011;34335;51.566;6.994;2023-12-07T14:13:51;9.23;;;4.10;;
48552;SDS011;34335;51.566;6.994;2023-12-07T14:16:19;5.70;;;3.00;;
48552;SDS011;34335;51.566;6.994;2023-12-07T14:18:45;10.52;;;3.90;;
48552;SDS011;34335;51.566;6.994;2023-12-07T14:21:11;6.43;;;3.13;;
48552;SDS011;34335;51.566;6.994;2023-12-07T14:23:39;9.27;;;3.65;;
48552;SDS011;34335;51.566;6.994;2023-12-07T14:26:05;10.35;;;4.00;;
48552;SDS011;34335;51.566;6.994;2023-12-07T14:28:30;7.47;;;3.75;;
48552;SDS011;34335;51.566;6.994;2023-12-07T14:30:58;9.32;;;4.07;;
48552;SDS011;34335;51.566;6.994;2023-12-07T14:33:24;5.95;;;3.55;;
48552;SDS011;34335;51.566;6.994;2023-12-07T14:35:49;8.65;;;4.13;;
48552;SDS011;34335;51.566;6.994;2023-12-07T14:38:15;11.15;;;2.90;;